Capt. Henry Jackman — VCTV — position and weather

sailwx.info

Track history (hours):
 
Tides and Currents Weather Stations Pressure Air Temp Water Temp Dewpoint Dewpoint Depression Visibility Wind Speed Wind Dir Waves Ship Positions

Capt. Henry Jackman

Last reported at 2018-Jul-20 04:31 UTC. Time now 2018-Jul-22 14:44 UTC.
Position N 45°22' W 083°02'.

Length 223 m; draft 6.4 m.

Type: Cargo ship. MMSI: 316001803.

Date/timePositionNaut miles runAvg speedWind from/ knotsBaromVisibWave heightAir tempDewpointWater temp
2018-Jul-20 04:31N 45°22' W 083°02'510.9
2018-Jul-20 04:02N 45°27' W 083°04'110.8
2018-Jul-20 03:55N 45°28' W 083°05'510.8
2018-Jul-20 03:30N 45°33' W 083°07'510.9
2018-Jul-20 03:00N 45°38' W 083°09'511.0
2018-Jul-20 02:30N 45°43' W 083°11'2110.1
2018-Jul-20 00:26N 46°03' W 083°21'14 1.4
2018-Jul-19 13:47N 46°14' W 083°33'1 0.8
2018-Jul-19 12:46N 46°14' W 083°33'0 0.0
2018-Jul-19 12:19N 46°14' W 083°33'0 0.0
2018-Jul-19 11:10N 46°14' W 083°33'0 0.0
2018-Jul-19 10:58N 46°14' W 083°33'0 0.0
2018-Jul-19 08:28N 46°14' W 083°33'0 0.0
2018-Jul-19 07:52N 46°14' W 083°33'0 0.0
2018-Jul-19 05:10N 46°14' W 083°33'0 0.1
2018-Jul-19 04:49N 46°14' W 083°33'0 0.0
2018-Jul-19 04:28N 46°14' W 083°33'0 0.0
2018-Jul-19 03:55N 46°14' W 083°33'26 4.9
2018-Jul-18 22:43N 45°51' W 083°14'1511.3
2018-Jul-18 21:25N 45°37' W 083°19'511.3
2018-Jul-18 21:00N 45°32' W 083°20'12 0.5
2018-Jul-17 19:31N 45°25' W 083°32'0 8.4
2018-Jul-17 19:29N 45°25' W 083°33'4 8.5
2018-Jul-17 19:00N 45°27' W 083°38'4 7.0
2018-Jul-17 18:30N 45°29' W 083°42'611.7
2018-Jul-17 18:00N 45°31' W 083°50'911.8
2018-Jul-17 17:16N 45°36' W 084°00'311.7
2018-Jul-17 17:00N 45°37' W 084°04'611.8
2018-Jul-17 16:27N 45°40' W 084°12'511.0
2018-Jul-17 16:00N 45°42' W 084°19'611.0
2018-Jul-17 15:30N 45°42' W 084°27'611.8
2018-Jul-17 15:00N 45°45' W 084°34'612.0
2018-Jul-17 14:30N 45°48' W 084°41'611.9
2018-Jul-17 13:59N 45°49' W 084°50'612.2
2018-Jul-17 13:30N 45°49' W 084°58'611.6
2018-Jul-17 13:00N 45°50' W 085°07'5 9.5
2018-Jul-17 12:30N 45°45' W 085°09'611.7
2018-Jul-17 11:59N 45°40' W 085°15'611.4
2018-Jul-17 11:30N 45°36' W 085°19'611.4
2018-Jul-17 11:00N 45°31' W 085°24'611.6
2018-Jul-17 10:30N 45°27' W 085°29'611.9
2018-Jul-17 10:00N 45°22' W 085°34'611.9
2018-Jul-17 09:30N 45°17' W 085°39'612.0
2018-Jul-17 08:58N 45°12' W 085°45'911.8
2018-Jul-17 08:11N 45°05' W 085°52'  
2018-Jul-14 23:23N 45°19' W 086°21'511.7
2018-Jul-14 22:59N 45°24' W 086°18'611.4
2018-Jul-14 22:28N 45°29' W 086°14'511.3
2018-Jul-14 22:00N 45°34' W 086°11'611.5
2018-Jul-14 21:30N 45°39' W 086°07'611.0
2018-Jul-14 21:00N 45°43' W 086°02'611.5
2018-Jul-14 20:30N 45°46' W 085°54'611.5
2018-Jul-14 20:00N 45°48' W 085°47'611.4
2018-Jul-14 19:30N 45°51' W 085°40'611.2
2018-Jul-14 18:59N 45°54' W 085°33'611.7
2018-Jul-14 18:30N 45°53' W 085°25'611.5
2018-Jul-14 18:00N 45°53' W 085°16'611.5
2018-Jul-14 17:30N 45°52' W 085°08'611.6
2018-Jul-14 17:00N 45°51' W 085°00'611.4
2018-Jul-14 16:30N 45°50' W 084°52'611.3
2018-Jul-14 16:00N 45°49' W 084°44'5 9.4
2018-Jul-14 15:30N 45°50' W 084°38'5 9.5
2018-Jul-14 15:00N 45°51' W 084°31'611.3
2018-Jul-14 14:30N 45°51' W 084°23'1211.5
2018-Jul-14 13:30N 45°51' W 084°06'  
Track history (hours):
 
Tides and Currents Weather Stations Pressure Air Temp Water Temp Dewpoint Dewpoint Depression Visibility Wind Speed Wind Dir Waves Ship Positions

Capt. Henry Jackman

Last reported at 2018-Jul-20 04:31 UTC. Time now 2018-Jul-22 14:44 UTC.
Position N 45°22' W 083°02'.

Length 223 m; draft 6.4 m.

Type: Cargo ship. MMSI: 316001803.

Date/timePositionNaut miles runAvg speedWind from/ knotsBaromVisibWave heightAir tempDewpointWater temp
2018-Jul-20 04:31N 45°22' W 083°02'510.9
2018-Jul-20 04:02N 45°27' W 083°04'110.8
2018-Jul-20 03:55N 45°28' W 083°05'510.8
2018-Jul-20 03:30N 45°33' W 083°07'510.9
2018-Jul-20 03:00N 45°38' W 083°09'511.0
2018-Jul-20 02:30N 45°43' W 083°11'2110.1
2018-Jul-20 00:26N 46°03' W 083°21'14 1.4
2018-Jul-19 13:47N 46°14' W 083°33'1 0.8
2018-Jul-19 12:46N 46°14' W 083°33'0 0.0
2018-Jul-19 12:19N 46°14' W 083°33'0 0.0
2018-Jul-19 11:10N 46°14' W 083°33'0 0.0
2018-Jul-19 10:58N 46°14' W 083°33'0 0.0
2018-Jul-19 08:28N 46°14' W 083°33'0 0.0
2018-Jul-19 07:52N 46°14' W 083°33'0 0.0
2018-Jul-19 05:10N 46°14' W 083°33'0 0.1
2018-Jul-19 04:49N 46°14' W 083°33'0 0.0
2018-Jul-19 04:28N 46°14' W 083°33'0 0.0
2018-Jul-19 03:55N 46°14' W 083°33'26 4.9
2018-Jul-18 22:43N 45°51' W 083°14'1511.3
2018-Jul-18 21:25N 45°37' W 083°19'511.3
2018-Jul-18 21:00N 45°32' W 083°20'12 0.5
2018-Jul-17 19:31N 45°25' W 083°32'0 8.4
2018-Jul-17 19:29N 45°25' W 083°33'4 8.5
2018-Jul-17 19:00N 45°27' W 083°38'4 7.0
2018-Jul-17 18:30N 45°29' W 083°42'611.7
2018-Jul-17 18:00N 45°31' W 083°50'911.8
2018-Jul-17 17:16N 45°36' W 084°00'311.7
2018-Jul-17 17:00N 45°37' W 084°04'611.8
2018-Jul-17 16:27N 45°40' W 084°12'511.0
2018-Jul-17 16:00N 45°42' W 084°19'611.0
2018-Jul-17 15:30N 45°42' W 084°27'611.8
2018-Jul-17 15:00N 45°45' W 084°34'612.0
2018-Jul-17 14:30N 45°48' W 084°41'611.9
2018-Jul-17 13:59N 45°49' W 084°50'612.2
2018-Jul-17 13:30N 45°49' W 084°58'611.6
2018-Jul-17 13:00N 45°50' W 085°07'5 9.5
2018-Jul-17 12:30N 45°45' W 085°09'611.7
2018-Jul-17 11:59N 45°40' W 085°15'611.4
2018-Jul-17 11:30N 45°36' W 085°19'611.4
2018-Jul-17 11:00N 45°31' W 085°24'611.6
2018-Jul-17 10:30N 45°27' W 085°29'611.9
2018-Jul-17 10:00N 45°22' W 085°34'611.9
2018-Jul-17 09:30N 45°17' W 085°39'612.0
2018-Jul-17 08:58N 45°12' W 085°45'911.8
2018-Jul-17 08:11N 45°05' W 085°52'  
2018-Jul-14 23:23N 45°19' W 086°21'511.7
2018-Jul-14 22:59N 45°24' W 086°18'611.4
2018-Jul-14 22:28N 45°29' W 086°14'511.3
2018-Jul-14 22:00N 45°34' W 086°11'611.5
2018-Jul-14 21:30N 45°39' W 086°07'611.0
2018-Jul-14 21:00N 45°43' W 086°02'611.5
2018-Jul-14 20:30N 45°46' W 085°54'611.5
2018-Jul-14 20:00N 45°48' W 085°47'611.4
2018-Jul-14 19:30N 45°51' W 085°40'611.2
2018-Jul-14 18:59N 45°54' W 085°33'611.7
2018-Jul-14 18:30N 45°53' W 085°25'611.5
2018-Jul-14 18:00N 45°53' W 085°16'611.5
2018-Jul-14 17:30N 45°52' W 085°08'611.6
2018-Jul-14 17:00N 45°51' W 085°00'611.4
2018-Jul-14 16:30N 45°50' W 084°52'611.3
2018-Jul-14 16:00N 45°49' W 084°44'5 9.4
2018-Jul-14 15:30N 45°50' W 084°38'5 9.5
2018-Jul-14 15:00N 45°51' W 084°31'611.3
2018-Jul-14 14:30N 45°51' W 084°23'1211.5
2018-Jul-14 13:30N 45°51' W 084°06'  

Dump ship's entire track history